Main page
METAR-TAF:

METAR-TAF

Airports :

Norrköping Airport

Norrköping, Sweden

latitude: 58-35N, longitude: 016-09E, elevation: 34 m

Current weather observation

The report was made 31 minutes ago, at 03:20 UTC
Wind 10 kt from the West/Southwest
Temperature 17°C
Humidity 82%
Pressure 1011 hPa
Visibility 10 km or more

METAR: ESSP 180320Z AUTO 24010KT 9999 SCT017/// BKN022/// BKN047/// 17/14 Q1011

Time: 05:51 (03:51 UTC)

Forecast

The report was made 13 hours and 21 minutes ago, at 14:30 UTC
Forecast valid from 17 at 15 UTC to 17 at 19 UTC
Wind 14 kt from the West/Southwest
Visibility 10 km or more
Broken clouds at a height of 2500 ft
Temporary
from 17 at 15 UTC to 17 at 19 UTC
Broken clouds at a height of 1500 ft, Cumulonimbus.
rain showers,

TAF: ESSP 171430Z 1715/1719 25014KT 9999 BKN025 TEMPO 1715/1719 SHRA BKN015CB

Weather observations and forecasts of more than 4000 airports (METAR and TAF reports).

The available stations are represented by yellow and red dots on the map.

Hover mouse over dot to see the name of the station.

Then click to see weather observations and forecasts.

To change the map : click on the green buttons with a black cross to zoom in, on the green button with a dash to zoom out, or on the green arrows for adjacent maps.


METAR-TAF: